Time;durP1;ratioP1;P1;durP2;ratioP2;P2;SDS_P1;SDS_P2;PMS_P1;PMS_P2;Temp;Humidity;BMP_temperature;BMP_pressure;BME280_temperature;BME280_humidity;BME280_pressure;Samples;Min_cycle;Max_cycle;Signal;HPM_P1;HPM_P2
2022/11/02 00:00:20;;;;;;;0.80;0.60;;;20.50;69.40;;;;;;5008437;28;20038;-14
2022/11/02 00:02:45;;;;;;;0.55;0.40;;;20.40;69.50;;;;;;5008274;28;20041;-13
2022/11/02 00:05:12;;;;;;;0.60;0.43;;;20.40;69.60;;;;;;5009038;28;20153;-13
2022/11/02 00:07:38;;;;;;;0.65;0.50;;;20.60;69.40;;;;;;5016065;28;20046;-13
2022/11/02 00:10:04;;;;;;;0.88;0.43;;;20.50;69.30;;;;;;5019917;28;20137;-13
2022/11/02 00:12:30;;;;;;;0.70;0.50;;;20.50;69.40;;;;;;5012855;28;20053;-20
2022/11/02 00:14:55;;;;;;;0.95;0.68;;;20.50;69.60;;;;;;5004067;28;20054;-14
2022/11/02 00:17:21;;;;;;;0.50;0.43;;;20.50;69.40;;;;;;5014054;28;20042;-21
2022/11/02 00:19:47;;;;;;;0.73;0.50;;;20.60;69.00;;;;;;5009153;28;20521;-14
2022/11/02 00:22:12;;;;;;;1.52;0.73;;;20.60;68.80;;;;;;4990583;28;20047;-14
2022/11/02 00:24:38;;;;;;;0.70;0.43;;;20.60;68.80;;;;;;4991276;28;20056;-14
2022/11/02 00:27:03;;;;;;;0.73;0.60;;;20.50;69.00;;;;;;4991383;28;20070;-13
2022/11/02 00:29:29;;;;;;;0.60;0.40;;;20.50;68.80;;;;;;4994696;28;20464;-13
2022/11/02 00:31:54;;;;;;;0.60;0.40;;;20.50;69.00;;;;;;4990089;28;20054;-13
2022/11/02 00:34:20;;;;;;;1.25;0.60;;;20.50;69.70;;;;;;4992559;28;20034;-19
2022/11/02 00:36:46;;;;;;;0.73;0.50;;;20.50;69.00;;;;;;5003343;28;20053;-13
2022/11/02 00:39:11;;;;;;;0.95;0.60;;;20.50;69.00;;;;;;5010349;28;20069;-23
2022/11/02 00:41:37;;;;;;;1.90;0.55;;;20.50;68.80;;;;;;5010860;28;20069;-22
2022/11/02 00:44:02;;;;;;;0.50;0.40;;;20.50;69.00;;;;;;5002315;28;20046;-22
2022/11/02 00:46:29;;;;;;;0.47;0.40;;;20.40;69.20;;;;;;5010737;28;20157;-25
2022/11/02 00:48:55;;;;;;;0.30;0.30;;;20.50;69.00;;;;;;5013000;28;20505;-22
2022/11/02 00:51:20;;;;;;;0.57;0.40;;;20.50;68.60;;;;;;5010511;28;20041;-23
2022/11/02 00:53:46;;;;;;;0.40;0.30;;;20.40;69.10;;;;;;5006931;28;20049;-23
2022/11/02 00:56:11;;;;;;;0.77;0.43;;;20.30;69.40;;;;;;5016963;28;20045;-22
2022/11/02 00:58:37;;;;;;;0.55;0.40;;;20.30;69.30;;;;;;5008066;28;20056;-22
2022/11/02 01:01:06;;;;;;;0.68;0.40;;;20.40;69.20;;;;;;5008017;28;20046;-22
2022/11/02 01:03:31;;;;;;;1.33;0.70;;;20.30;69.30;;;;;;5008521;28;20045;-24
2022/11/02 01:05:57;;;;;;;0.90;0.52;;;20.30;69.40;;;;;;5010970;28;20518;-24
2022/11/02 01:08:23;;;;;;;2.97;0.40;;;20.30;69.40;;;;;;5011785;28;20033;-24
2022/11/02 01:10:48;;;;;;;1.25;0.63;;;20.30;69.50;;;;;;5015430;28;20042;-28
2022/11/02 01:13:14;;;;;;;0.88;0.60;;;20.30;69.40;;;;;;5010049;28;20057;-31
2022/11/02 01:15:39;;;;;;;0.70;0.50;;;20.30;69.40;;;;;;5004402;28;20459;-20
2022/11/02 01:18:05;;;;;;;0.68;0.43;;;20.40;69.20;;;;;;5005041;28;20464;-22
2022/11/02 01:20:31;;;;;;;1.00;0.50;;;20.40;69.20;;;;;;5015591;28;20034;-23
2022/11/02 01:22:58;;;;;;;1.27;0.50;;;20.40;69.10;;;;;;5013821;28;20076;-22
2022/11/02 01:25:24;;;;;;;0.82;0.70;;;20.30;69.40;;;;;;5005080;28;20125;-23
2022/11/02 01:27:49;;;;;;;0.77;0.30;;;20.20;69.60;;;;;;5012044;28;20061;-22
2022/11/02 01:30:15;;;;;;;0.98;0.63;;;20.30;69.70;;;;;;5012062;28;20230;-22
2022/11/02 01:32:40;;;;;;;0.52;0.40;;;20.40;69.70;;;;;;5012877;28;20038;-18
2022/11/02 01:35:06;;;;;;;0.52;0.45;;;20.30;69.60;;;;;;5010799;28;20046;-21
2022/11/02 01:37:32;;;;;;;0.60;0.60;;;20.40;69.50;;;;;;5012472;28;20045;-22
2022/11/02 01:39:57;;;;;;;0.65;0.50;;;20.40;69.50;;;;;;5017209;28;20094;-23
2022/11/02 01:42:24;;;;;;;1.45;0.63;;;20.40;69.60;;;;;;5013711;28;20026;-32
2022/11/02 01:44:49;;;;;;;0.95;0.63;;;20.40;69.50;;;;;;5011670;28;20107;-24
2022/11/02 01:47:27;;;;;;;0.70;0.40;;;20.40;69.50;;;;;;5012827;28;20407;-23
2022/11/02 01:50:13;;;;;;;1.70;0.60;;;20.40;69.70;;;;;;5004310;28;20042;-22
2022/11/02 01:52:39;;;;;;;0.80;0.60;;;20.40;69.50;;;;;;4990500;28;20542;-22
2022/11/02 01:55:12;;;;;;;1.23;0.70;;;20.30;69.70;;;;;;5006499;28;20069;-27
2022/11/02 01:57:39;;;;;;;0.80;0.50;;;20.30;69.80;;;;;;5000938;28;20104;-32
2022/11/02 02:00:07;;;;;;;0.73;0.40;;;20.30;70.50;;;;;;5001157;28;20121;-22
2022/11/02 02:02:33;;;;;;;1.13;0.55;;;20.20;69.70;;;;;;5011189;28;20034;-22
2022/11/02 02:05:05;;;;;;;0.63;0.43;;;20.30;69.50;;;;;;5018151;28;20054;-22
2022/11/02 02:07:31;;;;;;;1.02;0.50;;;20.30;69.60;;;;;;5018253;28;20069;-22
2022/11/02 02:09:57;;;;;;;0.70;0.50;;;20.40;69.40;;;;;;5013408;28;20566;-22
2022/11/02 02:12:23;;;;;;;1.10;0.75;;;20.20;69.60;;;;;;5004443;28;20141;-22
2022/11/02 02:14:49;;;;;;;0.90;0.70;;;20.30;69.50;;;;;;5012200;28;20453;-21
2022/11/02 02:17:42;;;;;;;1.40;0.80;;;20.30;69.50;;;;;;5013609;28;20042;-22
2022/11/02 02:20:19;;;;;;;1.25;0.40;;;20.20;69.60;;;;;;5043155;28;20124;-24
2022/11/02 02:23:21;;;;;;;0.85;0.43;;;20.30;69.30;;;;;;5013486;28;20042;-22
2022/11/02 02:26:03;;;;;;;0.52;0.50;;;20.30;69.30;;;;;;5008960;28;20041;-29
2022/11/02 02:28:35;;;;;;;0.57;0.50;;;20.30;69.40;;;;;;5011793;28;20103;-22
2022/11/02 02:31:03;;;;;;;1.48;0.70;;;20.20;69.40;;;;;;5042952;28;20038;-22
2022/11/02 02:33:39;;;;;;;1.00;0.50;;;20.20;69.40;;;;;;4997348;28;20037;-22
2022/11/02 02:36:44;;;;;;;0.90;0.70;;;20.20;69.40;;;;;;4997620;28;20443;-23
2022/11/02 02:39:35;;;;;;;0.95;0.55;;;20.20;69.60;;;;;;5002860;28;20045;-22
2022/11/02 02:42:19;;;;;;;0.57;0.50;;;20.30;69.40;;;;;;5012587;28;20038;-23
2022/11/02 02:44:50;;;;;;;0.73;0.40;;;20.30;69.30;;;;;;5016064;28;20572;-28
2022/11/02 02:47:17;;;;;;;0.45;0.32;;;20.20;69.50;;;;;;5006645;28;20038;-22
2022/11/02 02:50:00;;;;;;;0.80;0.50;;;20.20;69.50;;;;;;5008486;28;20029;-22
2022/11/02 02:52:25;;;;;;;0.73;0.35;;;20.20;69.30;;;;;;5006243;28;20111;-21
2022/11/02 02:54:51;;;;;;;1.15;0.55;;;20.10;69.60;;;;;;5026436;28;20061;-22
2022/11/02 02:57:17;;;;;;;1.35;0.60;;;20.10;69.70;;;;;;5006943;28;20480;-24
2022/11/02 02:59:44;;;;;;;0.68;0.68;;;20.20;69.40;;;;;;5011433;28;20056;-28
2022/11/02 03:02:15;;;;;;;0.65;0.50;;;20.20;69.50;;;;;;5005029;28;20124;-22
2022/11/02 03:04:40;;;;;;;0.77;0.55;;;20.10;69.60;;;;;;5014666;28;20046;-23
2022/11/02 03:07:06;;;;;;;1.63;0.60;;;20.10;69.60;;;;;;5009673;28;20482;-22
2022/11/02 03:09:42;;;;;;;0.93;0.30;;;20.10;69.60;;;;;;5006475;28;20113;-23
2022/11/02 03:12:15;;;;;;;0.98;0.47;;;20.20;69.60;;;;;;5031038;28;20410;-23
2022/11/02 03:15:16;;;;;;;0.50;0.43;;;20.20;69.60;;;;;;5008490;28;20053;-22
2022/11/02 03:17:52;;;;;;;0.85;0.50;;;20.20;69.60;;;;;;5012618;28;20129;-24
2022/11/02 03:20:21;;;;;;;1.25;0.70;;;20.20;70.20;;;;;;5013776;28;20093;-23
2022/11/02 03:23:05;;;;;;;1.05;0.50;;;20.10;69.60;;;;;;4996219;28;20042;-22
2022/11/02 03:25:48;;;;;;;0.43;0.40;;;20.20;69.80;;;;;;5005133;28;20050;-22
2022/11/02 03:28:33;;;;;;;1.33;0.40;;;20.10;69.60;;;;;;5007155;28;20034;-23
2022/11/02 03:31:07;;;;;;;1.10;0.50;;;20.20;69.50;;;;;;5008869;28;20069;-22
2022/11/02 03:33:35;;;;;;;0.70;0.50;;;20.20;69.40;;;;;;5009060;28;20092;-22
2022/11/02 03:36:09;;;;;;;0.50;0.40;;;20.10;69.50;;;;;;5019946;28;20562;-22
2022/11/02 03:38:48;;;;;;;0.77;0.55;;;20.20;69.40;;;;;;5014220;28;20060;-27
2022/11/02 03:41:14;;;;;;;0.65;0.45;;;20.10;69.50;;;;;;5007480;28;20034;-21
2022/11/02 03:43:40;;;;;;;0.80;0.52;;;20.20;69.50;;;;;;4994859;28;20056;-25
2022/11/02 03:46:06;;;;;;;0.50;0.50;;;20.10;69.30;;;;;;5014712;28;20548;-23
2022/11/02 03:48:35;;;;;;;1.00;0.50;;;20.10;69.60;;;;;;4998829;28;20494;-22
2022/11/02 03:51:03;;;;;;;0.90;0.57;;;20.10;69.60;;;;;;5005493;28;20042;-25
2022/11/02 03:53:43;;;;;;;0.73;0.70;;;20.10;69.60;;;;;;5024875;28;20126;-21
2022/11/02 03:56:13;;;;;;;1.08;0.38;;;20.10;69.60;;;;;;5028386;28;20110;-24
2022/11/02 03:58:39;;;;;;;1.67;0.60;;;20.10;69.40;;;;;;5011210;28;20037;-23
2022/11/02 04:01:07;;;;;;;1.00;0.50;;;20.10;69.30;;;;;;5010090;28;21577;-22
2022/11/02 04:03:32;;;;;;;0.70;0.50;;;20.10;69.40;;;;;;5013156;28;20038;-23
2022/11/02 04:05:58;;;;;;;2.25;0.80;;;20.00;69.70;;;;;;5008000;28;20119;-22
2022/11/02 04:08:36;;;;;;;1.05;0.40;;;20.00;69.60;;;;;;5006316;28;20053;-24
2022/11/02 04:16:29;;;;;;;0.82;0.43;;;20.00;69.40;;;;;;5011746;28;20521;-22
2022/11/02 04:21:40;;;;;;;0.70;0.43;;;20.10;69.30;;;;;;5012538;28;20049;-21
2022/11/02 04:26:49;;;;;;;0.40;0.30;;;20.00;69.40;;;;;;5010118;28;20481;-22
2022/11/02 04:29:15;;;;;;;0.50;0.35;;;20.00;69.60;;;;;;5007905;28;20869;-22
2022/11/02 04:31:40;;;;;;;0.65;0.50;;;20.00;69.60;;;;;;5004829;28;20455;-23
2022/11/02 04:34:06;;;;;;;1.08;0.40;;;20.00;69.60;;;;;;4996559;28;20051;-25
2022/11/02 04:36:32;;;;;;;1.33;0.60;;;20.00;69.50;;;;;;5012897;28;20484;-25
2022/11/02 04:38:57;;;;;;;0.85;0.47;;;20.00;69.30;;;;;;5006158;28;20045;-23
2022/11/02 04:41:41;;;;;;;0.47;0.43;;;20.00;69.30;;;;;;5003983;28;20038;-23
2022/11/02 04:44:08;;;;;;;0.70;0.40;;;20.10;69.20;;;;;;5012979;28;20801;-22
2022/11/02 04:46:34;;;;;;;0.60;0.52;;;20.10;69.30;;;;;;5011598;28;21042;-24
2022/11/02 04:49:00;;;;;;;1.33;0.50;;;20.00;69.20;;;;;;5005955;28;20049;-22
2022/11/02 04:51:27;;;;;;;0.40;0.40;;;20.00;69.30;;;;;;4999078;28;20056;-22
2022/11/02 04:53:53;;;;;;;0.70;0.40;;;19.90;69.40;;;;;;4999465;28;20042;-23
2022/11/02 04:56:18;;;;;;;0.65;0.35;;;20.00;69.40;;;;;;5016168;28;20053;-22
2022/11/02 04:58:50;;;;;;;0.47;0.40;;;19.90;69.20;;;;;;5010692;28;20046;-23
2022/11/02 05:01:16;;;;;;;0.70;0.40;;;19.90;69.50;;;;;;4999731;28;20045;-22
2022/11/02 05:03:42;;;;;;;0.60;0.40;;;19.90;69.60;;;;;;5002470;28;20510;-23
2022/11/02 05:06:10;;;;;;;0.38;0.20;;;20.00;69.40;;;;;;4992978;28;20051;-23
2022/11/02 05:08:36;;;;;;;0.68;0.50;;;20.10;69.20;;;;;;4993007;28;20096;-23
2022/11/02 05:11:02;;;;;;;0.50;0.40;;;20.00;69.00;;;;;;4990533;28;20461;-23
2022/11/02 05:13:27;;;;;;;0.73;0.40;;;20.00;69.00;;;;;;4990731;28;20050;-24
2022/11/02 05:15:57;;;;;;;1.15;0.60;;;20.00;69.10;;;;;;4992064;28;20042;-23
2022/11/02 05:18:22;;;;;;;0.43;0.40;;;19.90;69.20;;;;;;5016606;28;20053;-25
2022/11/02 05:20:55;;;;;;;0.70;0.40;;;19.90;69.30;;;;;;5015509;28;20039;-22
2022/11/02 05:23:21;;;;;;;0.80;0.40;;;20.00;69.20;;;;;;5007884;28;20050;-22
2022/11/02 05:25:57;;;;;;;0.52;0.38;;;19.90;69.20;;;;;;5007009;28;20042;-26
2022/11/02 05:28:23;;;;;;;0.80;0.32;;;19.90;69.40;;;;;;5008700;28;20103;-22
2022/11/02 05:30:49;;;;;;;0.90;0.40;;;19.90;69.30;;;;;;5016457;28;20045;-21
2022/11/02 05:33:15;;;;;;;0.70;0.60;;;20.00;69.10;;;;;;5003581;28;20135;-23
2022/11/02 05:35:41;;;;;;;0.50;0.40;;;20.00;69.20;;;;;;5011378;28;20046;-22
2022/11/02 05:38:06;;;;;;;0.63;0.40;;;20.00;69.00;;;;;;5012659;28;20498;-23
2022/11/02 05:40:39;;;;;;;0.47;0.30;;;19.90;69.10;;;;;;5005306;28;20100;-23
2022/11/02 05:43:05;;;;;;;0.77;0.60;;;19.90;69.20;;;;;;5009377;28;20077;-22
2022/11/02 05:45:31;;;;;;;0.52;0.30;;;19.90;69.20;;;;;;5006245;28;20049;-26
2022/11/02 05:47:59;;;;;;;0.47;0.30;;;19.90;69.20;;;;;;5005649;28;20093;-21
2022/11/02 05:50:25;;;;;;;0.75;0.50;;;19.90;69.20;;;;;;5009259;28;20084;-23
2022/11/02 05:52:50;;;;;;;1.33;0.70;;;19.90;69.20;;;;;;5013196;28;20069;-22
2022/11/02 05:55:16;;;;;;;0.60;0.30;;;19.90;69.20;;;;;;5012449;28;20050;-24
2022/11/02 05:57:41;;;;;;;0.65;0.52;;;19.90;69.30;;;;;;4999835;28;20466;-22
2022/11/02 06:00:08;;;;;;;1.63;0.70;;;19.80;69.40;;;;;;4992394;28;20034;-22
2022/11/02 06:02:34;;;;;;;0.90;0.50;;;19.90;69.60;;;;;;4986828;28;20034;-31
2022/11/02 06:04:59;;;;;;;0.95;0.47;;;19.90;70.00;;;;;;4992338;28;20042;-23
2022/11/02 06:07:25;;;;;;;0.38;0.30;;;19.80;69.20;;;;;;4997578;28;20486;-21
2022/11/02 06:09:50;;;;;;;0.60;0.60;;;19.80;69.40;;;;;;5014969;28;20099;-23
2022/11/02 06:12:16;;;;;;;0.57;0.28;;;19.90;69.10;;;;;;5006970;28;20117;-21
2022/11/02 06:14:41;;;;;;;0.52;0.40;;;20.00;69.00;;;;;;5011770;28;20033;-25
2022/11/02 06:17:07;;;;;;;0.85;0.50;;;19.90;68.90;;;;;;5010068;28;20062;-22
2022/11/02 06:19:32;;;;;;;1.45;0.52;;;19.90;68.80;;;;;;5012195;28;20513;-22
2022/11/02 06:21:58;;;;;;;0.50;0.40;;;19.90;69.00;;;;;;5006871;28;20034;-19
2022/11/02 06:24:24;;;;;;;0.60;0.40;;;19.90;68.90;;;;;;5009706;28;20070;-23
2022/11/02 06:26:49;;;;;;;0.73;0.40;;;19.80;69.00;;;;;;5018053;28;20490;-30
2022/11/02 06:29:15;;;;;;;0.50;0.40;;;19.80;69.10;;;;;;5004958;28;20034;-22
2022/11/02 06:31:40;;;;;;;0.70;0.50;;;19.80;69.30;;;;;;5006847;28;20466;-21
2022/11/02 06:34:06;;;;;;;0.80;0.30;;;19.80;69.30;;;;;;5006300;28;20038;-23
2022/11/02 06:36:31;;;;;;;0.68;0.40;;;19.70;69.70;;;;;;5016278;28;20092;-21
2022/11/02 06:38:57;;;;;;;1.00;0.55;;;19.60;69.90;;;;;;5013668;28;20050;-22
2022/11/02 06:41:23;;;;;;;0.80;0.55;;;19.70;69.60;;;;;;5003788;28;20090;-22
2022/11/02 06:43:48;;;;;;;0.70;0.47;;;19.60;69.70;;;;;;5010662;28;20088;-26
2022/11/02 06:46:14;;;;;;;0.40;0.30;;;19.60;69.70;;;;;;5001342;28;20034;-22
2022/11/02 06:48:39;;;;;;;0.32;0.32;;;19.70;69.50;;;;;;5015848;28;20050;-22
2022/11/02 06:51:05;;;;;;;0.77;0.40;;;19.70;69.10;;;;;;5012448;28;20046;-23
2022/11/02 06:53:31;;;;;;;0.73;0.40;;;19.60;69.50;;;;;;5012363;28;20671;-22
2022/11/02 06:55:57;;;;;;;0.80;0.50;;;19.60;69.60;;;;;;5013734;28;20511;-24
2022/11/02 06:58:23;;;;;;;0.40;0.30;;;19.60;69.40;;;;;;4656486;28;10000029;-22
2022/11/02 07:00:49;;;;;;;0.52;0.38;;;19.60;69.20;;;;;;4990143;28;20053;-28
2022/11/02 07:03:14;;;;;;;0.93;0.40;;;19.50;69.90;;;;;;4989436;28;20041;-22
2022/11/02 07:05:40;;;;;;;0.60;0.30;;;19.50;70.20;;;;;;4990213;28;20581;-22
2022/11/02 07:08:05;;;;;;;0.43;0.38;;;19.50;70.50;;;;;;4986969;28;20482;-20
2022/11/02 07:10:31;;;;;;;0.45;0.30;;;19.40;70.70;;;;;;4984440;28;20136;-21
2022/11/02 07:12:57;;;;;;;0.43;0.40;;;19.40;70.70;;;;;;5010502;28;20045;-22
2022/11/02 07:15:23;;;;;;;0.50;0.40;;;19.40;70.90;;;;;;5001226;28;20058;-21
2022/11/02 07:17:49;;;;;;;0.30;0.30;;;19.40;70.90;;;;;;5006010;28;20061;-22
2022/11/02 07:20:15;;;;;;;0.85;0.55;;;19.40;70.70;;;;;;5004868;28;20409;-26
2022/11/02 07:22:41;;;;;;;0.57;0.40;;;19.60;70.30;;;;;;5011753;28;20056;-22
2022/11/02 07:25:06;;;;;;;0.60;0.60;;;19.60;70.00;;;;;;5002081;28;20050;-25
2022/11/02 07:27:37;;;;;;;0.75;0.30;;;19.60;69.70;;;;;;4991836;28;20571;-21
2022/11/02 07:30:04;;;;;;;0.57;0.47;;;19.50;70.00;;;;;;4995403;28;20105;-20
2022/11/02 07:32:29;;;;;;;0.30;0.28;;;19.50;70.40;;;;;;5008780;28;20081;-21
2022/11/02 07:34:55;;;;;;;0.25;0.22;;;19.50;70.50;;;;;;5007723;28;20043;-22
2022/11/02 07:37:20;;;;;;;0.40;0.40;;;19.60;70.20;;;;;;5012738;28;20505;-22
2022/11/02 07:39:46;;;;;;;0.65;0.35;;;19.50;69.90;;;;;;5005134;28;20126;-21
2022/11/02 07:42:11;;;;;;;1.15;0.47;;;19.40;70.60;;;;;;5013960;28;20034;-22
2022/11/02 07:44:37;;;;;;;0.50;0.40;;;19.40;70.40;;;;;;5008554;28;20054;-21
2022/11/02 07:47:03;;;;;;;0.35;0.30;;;19.50;70.30;;;;;;5005970;28;20049;-21
2022/11/02 07:49:28;;;;;;;0.50;0.40;;;19.50;70.30;;;;;;5001364;28;20117;-21
2022/11/02 07:51:55;;;;;;;0.52;0.30;;;19.60;70.00;;;;;;5012819;28;20061;-21
2022/11/02 07:54:20;;;;;;;0.65;0.40;;;19.60;70.10;;;;;;5020058;28;20037;-20
2022/11/02 07:56:46;;;;;;;1.45;0.60;;;19.70;70.10;;;;;;5011769;28;20149;-21
2022/11/02 07:59:12;;;;;;;0.40;0.30;;;19.70;70.30;;;;;;5004649;28;20046;-21
2022/11/02 08:01:37;;;;;;;1.30;0.45;;;19.50;70.80;;;;;;5008879;28;21081;-21
2022/11/02 08:04:03;;;;;;;0.50;0.50;;;19.60;70.70;;;;;;4999875;28;20116;-21
2022/11/02 08:06:29;;;;;;;0.70;0.40;;;19.60;70.50;;;;;;5000336;28;20040;-21
2022/11/02 08:08:54;;;;;;;1.88;0.70;;;19.50;70.70;;;;;;5015803;28;20041;-21
2022/11/02 08:11:20;;;;;;;0.50;0.40;;;19.50;71.60;;;;;;5013527;28;20032;-24
2022/11/02 08:13:45;;;;;;;0.65;0.40;;;19.50;70.60;;;;;;5012826;28;20487;-22
2022/11/02 08:16:11;;;;;;;0.60;0.35;;;19.70;71.10;;;;;;5014135;28;20104;-21
2022/11/02 08:18:36;;;;;;;0.85;0.35;;;19.60;70.40;;;;;;5013698;28;20044;-26
2022/11/02 08:21:03;;;;;;;0.68;0.47;;;19.70;70.60;;;;;;5019110;28;20658;-22
2022/11/02 08:23:28;;;;;;;1.10;0.70;;;19.80;70.20;;;;;;5006957;28;20550;-23
2022/11/02 08:25:56;;;;;;;1.25;0.20;;;19.70;70.50;;;;;;5015100;28;20144;-21
2022/11/02 08:28:24;;;;;;;0.52;0.47;;;19.70;70.80;;;;;;5011143;28;20030;-27
2022/11/02 08:30:50;;;;;;;0.38;0.38;;;19.60;71.80;;;;;;5016795;28;20469;-21
2022/11/02 08:33:17;;;;;;;0.98;0.70;;;19.50;72.60;;;;;;5018196;28;20494;-22
2022/11/02 08:35:43;;;;;;;1.77;0.55;;;19.70;72.20;;;;;;5016440;28;20494;-26
2022/11/02 08:38:09;;;;;;;1.00;0.40;;;19.60;72.20;;;;;;5015848;28;20058;-22
2022/11/02 08:40:34;;;;;;;2.58;0.80;;;19.60;72.20;;;;;;5016616;28;20651;-23
2022/11/02 08:43:05;;;;;;;0.77;0.50;;;19.70;71.80;;;;;;5014112;28;20045;-22
2022/11/02 08:45:31;;;;;;;1.35;0.50;;;19.70;71.50;;;;;;4998491;28;20177;-22
2022/11/02 08:47:56;;;;;;;1.08;0.60;;;19.70;71.90;;;;;;4998976;28;20120;-23
2022/11/02 08:50:22;;;;;;;0.60;0.52;;;19.60;71.90;;;;;;5011010;28;20099;-21
2022/11/02 08:52:48;;;;;;;1.10;0.60;;;19.70;72.10;;;;;;5015454;28;20108;-21
2022/11/02 08:55:13;;;;;;;0.82;0.70;;;19.70;71.80;;;;;;5011318;28;20042;-22
2022/11/02 08:57:48;;;;;;;1.58;0.57;;;19.70;71.70;;;;;;5012441;28;20034;-22
2022/11/02 09:00:14;;;;;;;2.08;0.40;;;19.70;71.60;;;;;;5010068;28;20038;-22
2022/11/02 09:02:40;;;;;;;1.10;0.65;;;19.80;71.30;;;;;;5014467;28;20103;-23
2022/11/02 09:05:06;;;;;;;1.30;0.60;;;19.70;72.00;;;;;;5010810;28;20050;-22
2022/11/02 09:07:32;;;;;;;0.88;0.40;;;19.70;71.30;;;;;;4991015;28;20049;-21
2022/11/02 09:09:57;;;;;;;0.98;0.60;;;19.70;71.20;;;;;;4993972;28;20042;-21
2022/11/02 09:12:23;;;;;;;1.13;0.50;;;19.70;71.40;;;;;;4990369;28;20026;-22
2022/11/02 09:14:48;;;;;;;1.88;0.80;;;19.70;71.10;;;;;;4990189;28;20042;-22
2022/11/02 09:17:14;;;;;;;1.17;0.47;;;19.70;71.10;;;;;;4989696;28;20042;-20
2022/11/02 09:19:39;;;;;;;1.70;0.60;;;19.70;71.10;;;;;;4991915;28;20042;-22
2022/11/02 09:22:05;;;;;;;1.02;0.68;;;19.70;71.10;;;;;;4991818;28;20034;-21
2022/11/02 09:24:31;;;;;;;3.67;1.00;;;19.70;70.90;;;;;;4984366;28;20649;-23
2022/11/02 09:26:56;;;;;;;1.85;0.90;;;19.80;70.50;;;;;;4989938;28;20082;-23
2022/11/02 09:29:22;;;;;;;0.95;0.65;;;19.90;70.10;;;;;;4990146;28;20451;-26
2022/11/02 09:31:47;;;;;;;0.77;0.73;;;19.90;70.10;;;;;;4994196;28;20046;-23
2022/11/02 09:34:14;;;;;;;2.85;0.73;;;19.90;70.20;;;;;;4993949;28;20045;-23
2022/11/02 09:36:40;;;;;;;2.03;0.85;;;19.90;70.30;;;;;;4992331;28;20498;-23
2022/11/02 09:39:05;;;;;;;1.20;0.47;;;19.90;70.30;;;;;;4992159;28;20038;-26
2022/11/02 09:42:04;;;;;;;0.68;0.50;;;19.90;70.40;;;;;;4983665;28;20877;-21
2022/11/02 09:44:40;;;;;;;1.00;0.65;;;20.00;70.40;;;;;;5031758;28;20529;-21
2022/11/02 09:47:08;;;;;;;1.30;0.60;;;20.00;70.40;;;;;;5004855;28;20082;-21
2022/11/02 09:49:33;;;;;;;0.95;0.55;;;20.00;70.30;;;;;;5009402;28;20124;-21
2022/11/02 09:51:59;;;;;;;0.82;0.68;;;20.00;70.00;;;;;;5013578;28;20128;-30
2022/11/02 09:54:27;;;;;;;1.60;0.80;;;19.90;70.10;;;;;;5014618;28;20034;-21
2022/11/02 09:56:55;;;;;;;2.03;0.50;;;20.00;70.20;;;;;;5013360;28;20057;-21
2022/11/02 09:59:26;;;;;;;1.48;0.80;;;20.20;69.10;;;;;;5014318;28;20163;-22
2022/11/02 10:01:54;;;;;;;0.82;0.50;;;20.10;69.60;;;;;;4646591;28;10000316;-21
2022/11/02 10:04:48;;;;;;;1.08;0.52;;;20.20;69.40;;;;;;5004447;28;20453;-20
2022/11/02 10:07:32;;;;;;;0.85;0.50;;;20.10;69.50;;;;;;5004504;28;20600;-21
2022/11/02 10:10:04;;;;;;;1.63;0.63;;;20.00;69.70;;;;;;5009207;28;20398;-21
2022/11/02 10:12:30;;;;;;;0.90;0.50;;;20.20;68.90;;;;;;5010837;28;20032;-20
2022/11/02 10:15:01;;;;;;;2.35;0.50;;;20.40;68.40;;;;;;5029864;28;20029;-21
2022/11/02 10:17:28;;;;;;;1.02;0.65;;;20.30;68.60;;;;;;5017559;28;20100;-26
2022/11/02 10:19:58;;;;;;;2.90;0.70;;;20.40;68.80;;;;;;5013880;28;20044;-25
2022/11/02 10:22:27;;;;;;;1.27;0.60;;;20.50;68.20;;;;;;4992078;28;20042;-24
2022/11/02 10:24:53;;;;;;;2.53;0.50;;;20.50;68.10;;;;;;5010533;28;21248;-21
2022/11/02 10:27:26;;;;;;;1.30;0.73;;;20.70;67.70;;;;;;5009293;28;20042;-21
2022/11/02 10:29:54;;;;;;;0.88;0.57;;;20.70;67.50;;;;;;5006817;28;20046;-21
2022/11/02 10:32:19;;;;;;;2.58;0.90;;;20.60;68.00;;;;;;4989094;28;20109;-21
2022/11/02 10:34:45;;;;;;;1.95;0.52;;;20.60;67.60;;;;;;4998673;28;20472;-22
2022/11/02 10:37:38;;;;;;;2.00;0.50;;;20.70;67.60;;;;;;5003370;28;20057;-21
2022/11/02 10:40:19;;;;;;;2.40;0.80;;;20.50;67.90;;;;;;4988737;28;20045;-21
2022/11/02 10:42:55;;;;;;;1.15;0.60;;;20.50;68.20;;;;;;5009084;28;20103;-21
2022/11/02 10:45:29;;;;;;;1.15;0.40;;;20.40;68.40;;;;;;5007102;28;20053;-21
2022/11/02 10:48:30;;;;;;;0.68;0.45;;;20.40;68.60;;;;;;5005155;28;20041;-21
2022/11/02 10:51:11;;;;;;;1.38;0.60;;;20.50;68.30;;;;;;4997730;28;20065;-22
2022/11/02 10:53:41;;;;;;;0.95;0.70;;;20.60;68.20;;;;;;5017653;28;20577;-21
2022/11/02 10:56:22;;;;;;;2.20;0.50;;;20.50;69.40;;;;;;5011897;28;20054;-21
2022/11/02 10:59:01;;;;;;;1.67;0.70;;;20.60;68.90;;;;;;5011712;28;20042;-21
2022/11/02 11:01:27;;;;;;;1.10;0.68;;;20.70;68.70;;;;;;5016054;28;21276;-21
2022/11/02 11:03:57;;;;;;;3.35;0.70;;;20.80;68.60;;;;;;5003227;28;20034;-21
2022/11/02 11:06:41;;;;;;;1.30;0.70;;;20.90;68.90;;;;;;5007764;28;20037;-21
2022/11/02 11:09:19;;;;;;;1.92;1.23;;;20.70;70.00;;;;;;5030808;28;20049;-21
2022/11/02 11:12:03;;;;;;;1.45;0.98;;;20.70;69.80;;;;;;5010021;28;20126;-21
2022/11/02 11:14:31;;;;;;;1.63;1.10;;;20.70;70.40;;;;;;5019468;28;20601;-24
2022/11/02 11:16:58;;;;;;;2.58;1.05;;;20.60;70.40;;;;;;5010597;28;20034;-22
2022/11/02 11:19:35;;;;;;;2.15;1.45;;;20.60;71.20;;;;;;5003695;28;20038;-44
2022/11/02 11:22:01;;;;;;;1.77;1.38;;;20.60;71.70;;;;;;5042348;28;20034;-21
2022/11/02 11:24:31;;;;;;;1.98;1.10;;;20.80;70.90;;;;;;5002395;28;20082;-22
2022/11/02 11:27:17;;;;;;;1.55;1.23;;;20.90;70.20;;;;;;5009888;28;20534;-20
2022/11/02 11:29:56;;;;;;;2.45;1.10;;;20.80;70.30;;;;;;5006912;28;20088;-21
2022/11/02 11:32:26;;;;;;;1.42;1.33;;;20.80;71.00;;;;;;5015399;28;20038;-20
2022/11/02 11:35:06;;;;;;;1.75;1.25;;;20.80;70.30;;;;;;5003506;28;20129;-28
2022/11/02 11:37:31;;;;;;;1.50;1.10;;;20.90;70.70;;;;;;5004315;28;20537;-21
2022/11/02 11:40:03;;;;;;;1.20;1.00;;;20.90;70.50;;;;;;5015572;28;20497;-27
2022/11/02 11:42:32;;;;;;;1.23;0.98;;;20.80;70.40;;;;;;5029299;28;20529;-20
2022/11/02 11:44:58;;;;;;;2.03;1.13;;;20.90;70.50;;;;;;5027422;28;20033;-22
2022/11/02 11:47:29;;;;;;;1.50;0.93;;;20.80;70.30;;;;;;5007165;28;20493;-25
2022/11/02 11:49:54;;;;;;;1.15;0.93;;;20.90;70.10;;;;;;4996680;28;20030;-20
2022/11/02 11:52:25;;;;;;;1.00;0.82;;;20.80;70.10;;;;;;4996430;28;20041;-27
2022/11/02 11:54:55;;;;;;;0.95;0.80;;;20.90;70.10;;;;;;4993589;28;20525;-21
2022/11/02 11:57:27;;;;;;;2.72;0.82;;;20.90;69.80;;;;;;4993864;28;20054;-20
2022/11/02 11:59:54;;;;;;;3.50;1.00;;;20.90;70.00;;;;;;4996509;28;20046;-21
2022/11/02 12:02:30;;;;;;;1.80;0.75;;;20.90;69.70;;;;;;5009791;28;20045;-20
2022/11/02 12:05:03;;;;;;;3.72;0.73;;;21.00;69.40;;;;;;4989061;28;20050;-20
2022/11/02 12:08:07;;;;;;;1.45;0.90;;;21.00;69.60;;;;;;4993227;28;20392;-20
2022/11/02 12:10:51;;;;;;;1.23;0.98;;;21.00;69.60;;;;;;4994685;28;20029;-22
2022/11/02 12:13:30;;;;;;;2.92;0.80;;;21.00;69.80;;;;;;4990839;28;20058;-21
2022/11/02 12:16:06;;;;;;;0.80;0.60;;;20.90;69.70;;;;;;4991339;28;20054;-20
2022/11/02 12:18:37;;;;;;;1.02;0.60;;;20.80;69.60;;;;;;5009495;28;20034;-24
2022/11/02 12:21:13;;;;;;;0.85;0.55;;;20.90;69.60;;;;;;4999079;28;20825;-21
2022/11/02 12:23:49;;;;;;;2.25;0.80;;;20.80;69.40;;;;;;5012261;28;20058;-21
2022/11/02 12:26:35;;;;;;;2.05;0.70;;;20.70;70.60;;;;;;5012738;28;20052;-21
2022/11/02 12:29:06;;;;;;;6.78;0.80;;;20.70;70.30;;;;;;5011753;28;20047;-21
2022/11/02 12:31:44;;;;;;;1.25;0.95;;;20.70;71.50;;;;;;5011425;28;20582;-22
2022/11/02 12:34:26;;;;;;;1.20;0.77;;;20.60;71.90;;;;;;5013246;28;20061;-21
2022/11/02 12:37:11;;;;;;;1.15;0.60;;;20.60;71.60;;;;;;5036279;28;20120;-21
2022/11/02 12:39:48;;;;;;;;;;;20.50;71.50;;;;;;5004991;28;20042;-43
2022/11/02 12:42:27;;;;;;;4.55;0.88;;;20.60;71.50;;;;;;5013192;28;19909;-39
2022/11/02 12:45:20;;;;;;;3.28;0.93;;;20.70;71.10;;;;;;4993318;28;20054;-35
2022/11/02 12:47:58;;;;;;;1.38;0.68;;;20.60;71.30;;;;;;5010351;28;20839;-38
2022/11/02 12:50:52;;;;;;;1.98;0.80;;;20.50;71.60;;;;;;5014774;28;20057;-35
2022/11/02 12:53:39;;;;;;;1.77;0.80;;;20.60;71.50;;;;;;5007855;28;20703;-35
2022/11/02 12:56:06;;;;;;;1.05;0.75;;;20.50;71.60;;;;;;5028951;28;20053;-34
2022/11/02 12:58:36;;;;;;;1.60;0.70;;;20.40;71.50;;;;;;5015686;28;20042;-35
2022/11/02 13:01:06;;;;;;;0.98;0.70;;;20.40;71.90;;;;;;5030937;28;20073;-39
2022/11/02 13:03:52;;;;;;;1.63;0.80;;;20.40;71.80;;;;;;5011786;28;20512;-37
2022/11/02 13:06:25;;;;;;;1.35;0.70;;;20.40;71.80;;;;;;5015828;28;20161;-39
2022/11/02 13:08:52;;;;;;;0.98;0.75;;;20.40;71.90;;;;;;4991619;28;20718;-36
2022/11/02 13:11:45;;;;;;;4.97;1.02;;;20.40;71.90;;;;;;4999190;28;20038;-37